Time;durP1;ratioP1;P1;durP2;ratioP2;P2;SDS_P1;SDS_P2;PMS_P1;PMS_P2;Temp;Humidity;BMP_temperature;BMP_pressure;BME280_temperature;BME280_humidity;BME280_pressure;Samples;Min_cycle;Max_cycle;Signal;HPM_P1;HPM_P2
2022/05/17 00:00:07;;;;;;;;;;;18.30;85.00;;;;;;6097863;23;20377;-79
2022/05/17 00:02:33;;;;;;;;;;;18.30;85.30;;;;;;6095900;23;19980;-79
2022/05/17 00:05:00;;;;;;;;;;;18.20;85.30;;;;;;6095858;23;20338;-78
2022/05/17 00:07:27;;;;;;;;;;;18.20;84.00;;;;;;6096572;23;19969;-79
2022/05/17 00:09:54;;;;;;;;;;;18.20;82.90;;;;;;6095000;23;19921;-82
2022/05/17 00:12:20;;;;;;;;;;;18.20;82.90;;;;;;6095731;23;19926;-80
2022/05/17 00:14:47;;;;;;;;;;;18.20;84.90;;;;;;6095856;23;19941;-85
2022/05/17 00:17:14;;;;;;;;;;;18.20;84.20;;;;;;6095913;23;19921;-82
2022/05/17 00:19:41;;;;;;;;;;;18.10;84.50;;;;;;6095797;23;20231;-82
2022/05/17 00:22:08;;;;;;;;;;;18.10;83.30;;;;;;6095769;23;19925;-79
2022/05/17 00:24:34;;;;;;;;;;;18.10;81.50;;;;;;6096957;23;19922;-82
2022/05/17 00:27:01;;;;;;;;;;;18.20;80.20;;;;;;6097419;23;19925;-80
2022/05/17 00:29:28;;;;;;;;;;;18.20;78.70;;;;;;6095940;23;19994;-83
2022/05/17 00:31:55;;;;;;;;;;;18.30;78.00;;;;;;6097352;23;19925;-85
2022/05/17 00:34:23;;;;;;;;;;;18.40;77.80;;;;;;6096003;23;20283;-79
2022/05/17 00:36:49;;;;;;;;;;;18.40;77.10;;;;;;6095497;23;20339;-80
2022/05/17 00:39:16;;;;;;;;;;;18.40;76.70;;;;;;6096445;23;19921;-79
2022/05/17 00:41:43;;;;;;;;;;;18.50;76.10;;;;;;6095435;23;19928;-79
2022/05/17 00:47:10;;;;;;;;;;;18.60;75.30;;;;;;6095399;23;19921;-85
2022/05/17 00:49:45;;;;;;;;;;;18.60;74.60;;;;;;6095637;23;20243;-80
2022/05/17 00:52:15;;;;;;;;;;;18.70;74.00;;;;;;6071120;23;20294;-85
2022/05/17 00:54:43;;;;;;;;;;;18.70;74.30;;;;;;6096061;23;20342;-86
2022/05/17 00:57:09;;;;;;;;;;;18.70;73.60;;;;;;6096664;23;19921;-85
2022/05/17 00:59:37;;;;;;;;;;;18.70;73.30;;;;;;6095453;23;19976;-79
2022/05/17 01:02:05;;;;;;;;;;;18.80;72.50;;;;;;6097358;23;19956;-86
2022/05/17 01:04:32;;;;;;;;;;;18.80;72.70;;;;;;6095209;23;19929;-82
2022/05/17 01:07:04;;;;;;;;;;;18.80;73.10;;;;;;6094537;23;20246;-86
2022/05/17 01:09:32;;;;;;;;;;;18.80;73.70;;;;;;6096565;23;19932;-80
2022/05/17 01:11:58;;;;;;;;;;;18.70;74.60;;;;;;6096363;23;19959;-86
2022/05/17 01:17:10;;;;;;;;;;;18.30;77.50;;;;;;6095276;23;19960;-82
2022/05/17 01:19:41;;;;;;;;;;;18.30;77.20;;;;;;6096320;23;19925;-79
2022/05/17 01:22:07;;;;;;;;;;;18.20;77.30;;;;;;6095144;23;19925;-80
2022/05/17 01:24:34;;;;;;;;;;;18.10;79.00;;;;;;6096087;23;20335;-87
2022/05/17 01:27:08;;;;;;;;;;;18.10;79.10;;;;;;6094238;23;19925;-80
2022/05/17 01:29:40;;;;;;;;;;;18.10;78.60;;;;;;6095492;23;19972;-81
2022/05/17 01:32:09;;;;;;;;;;;18.10;79.20;;;;;;6094314;23;19921;-80
2022/05/17 01:34:36;;;;;;;;;;;18.10;79.10;;;;;;6095494;23;19921;-80
2022/05/17 01:37:04;;;;;;;;;;;18.00;78.10;;;;;;6096987;23;20247;-83
2022/05/17 01:39:32;;;;;;;;;;;17.90;77.90;;;;;;6094753;23;19926;-81
2022/05/17 01:41:58;;;;;;;;;;;18.00;76.80;;;;;;6094790;23;19921;-84
2022/05/17 01:44:25;;;;;;;;;;;18.00;75.70;;;;;;6097479;23;19958;-82
2022/05/17 01:46:52;;;;;;;;;;;18.10;75.50;;;;;;6094182;23;19952;-79
2022/05/17 01:49:19;;;;;;;;;;;18.10;75.50;;;;;;6096002;23;19922;-82
2022/05/17 01:51:46;;;;;;;;;;;18.10;73.80;;;;;;6095164;23;19921;-81
2022/05/17 01:54:12;;;;;;;;;;;18.20;73.10;;;;;;6097819;23;19976;-86
2022/05/17 01:56:39;;;;;;;;;;;18.30;71.70;;;;;;6096090;23;19921;-86
2022/05/17 01:59:06;;;;;;;;;;;18.40;71.50;;;;;;6094672;23;19921;-82
2022/05/17 02:01:33;;;;;;;;;;;18.40;72.80;;;;;;6094625;23;20334;-82
2022/05/17 02:03:59;;;;;;;;;;;18.40;74.10;;;;;;6094272;23;20019;-82
2022/05/17 02:06:26;;;;;;;;;;;18.20;74.70;;;;;;6096375;23;20349;-81
2022/05/17 02:08:53;;;;;;;;;;;18.20;75.00;;;;;;6095451;23;19922;-82
2022/05/17 02:11:20;;;;;;;;;;;18.20;74.50;;;;;;6096079;23;19933;-84
2022/05/17 02:13:46;;;;;;;;;;;18.20;74.60;;;;;;6096732;23;20357;-82
2022/05/17 02:16:13;;;;;;;;;;;18.00;76.20;;;;;;6094119;23;19921;-80
2022/05/17 02:18:45;;;;;;;;;;;17.90;75.10;;;;;;6094141;23;19925;-78
2022/05/17 02:21:12;;;;;;;;;;;17.90;75.60;;;;;;6094696;23;20333;-85
2022/05/17 02:23:39;;;;;;;;;;;17.90;74.90;;;;;;6096850;23;19929;-79
2022/05/17 02:26:06;;;;;;;;;;;17.90;76.30;;;;;;6095055;23;19973;-78
2022/05/17 02:28:32;;;;;;;;;;;17.90;76.20;;;;;;6094828;23;19922;-79
2022/05/17 02:30:59;;;;;;;;;;;17.80;75.90;;;;;;6093458;23;20033;-78
2022/05/17 02:33:26;;;;;;;;;;;17.70;76.20;;;;;;6096135;23;19921;-86
2022/05/17 02:35:53;;;;;;;;;;;17.70;76.00;;;;;;6095344;23;19928;-84
2022/05/17 02:38:20;;;;;;;;;;;17.80;72.70;;;;;;6094460;23;19921;-83
2022/05/17 02:40:47;;;;;;;;;;;17.90;71.80;;;;;;6094563;23;19972;-85
2022/05/17 02:43:14;;;;;;;;;;;17.90;71.50;;;;;;6094465;23;19929;-82
2022/05/17 02:45:40;;;;;;;;;;;18.00;71.30;;;;;;6094619;23;19932;-82
2022/05/17 02:48:07;;;;;;;;;;;18.10;71.10;;;;;;6094955;23;19928;-81
2022/05/17 02:50:34;;;;;;;;;;;18.30;69.80;;;;;;6096388;23;19973;-78
2022/05/17 02:53:01;;;;;;;;;;;18.30;70.30;;;;;;6094783;23;20258;-85
2022/05/17 02:55:28;;;;;;;;;;;18.20;71.40;;;;;;6095734;23;20398;-79
2022/05/17 02:57:54;;;;;;;;;;;18.10;72.40;;;;;;6094640;23;19981;-83
2022/05/17 03:00:21;;;;;;;;;;;18.00;74.20;;;;;;6095556;23;19921;-84
2022/05/17 03:02:48;;;;;;;;;;;18.00;75.30;;;;;;6095270;23;19945;-79
2022/05/17 03:05:15;;;;;;;;;;;17.80;78.20;;;;;;6094746;23;19929;-79
2022/05/17 03:07:42;;;;;;;;;;;17.70;79.60;;;;;;6094955;23;20263;-79
2022/05/17 03:10:09;;;;;;;;;;;17.90;79.60;;;;;;6094272;23;19921;-80
2022/05/17 03:12:36;;;;;;;;;;;18.30;74.80;;;;;;6094564;23;19973;-85
2022/05/17 03:15:04;;;;;;;;;;;18.30;74.30;;;;;;6094759;23;19925;-79
2022/05/17 03:17:31;;;;;;;;;;;18.20;76.30;;;;;;6095156;23;19925;-79
2022/05/17 03:19:57;;;;;;;;;;;18.20;71.00;;;;;;6093694;23;19921;-78
2022/05/17 03:22:24;;;;;;;;;;;18.20;72.80;;;;;;6096078;23;19928;-81
2022/05/17 03:24:51;;;;;;;;;;;18.00;75.60;;;;;;6095492;23;19921;-86
2022/05/17 03:27:38;;;;;;;;;;;17.90;76.30;;;;;;6093621;23;19949;-86
2022/05/17 03:30:05;;;;;;;;;;;17.70;76.60;;;;;;6095249;23;19929;-81
2022/05/17 03:32:32;;;;;;;;;;;17.60;79.00;;;;;;6094127;23;19921;-81
2022/05/17 03:34:59;;;;;;;;;;;17.50;79.60;;;;;;6094877;23;19921;-86
2022/05/17 03:37:25;;;;;;;;;;;17.20;80.40;;;;;;6093745;23;19925;-79
2022/05/17 03:39:52;;;;;;;;;;;17.20;80.30;;;;;;6095288;23;19928;-80
2022/05/17 03:42:19;;;;;;;;;;;17.10;80.30;;;;;;6093644;23;19921;-81
2022/05/17 03:44:46;;;;;;;;;;;17.00;81.30;;;;;;6096342;23;20004;-82
2022/05/17 03:47:14;;;;;;;;;;;17.00;82.20;;;;;;6093693;23;20266;-85
2022/05/17 03:49:41;;;;;;;;;;;16.90;82.50;;;;;;6095633;23;20254;-82
2022/05/17 03:52:08;;;;;;;;;;;16.80;83.40;;;;;;6096911;23;19925;-85
2022/05/17 03:54:35;;;;;;;;;;;16.80;82.90;;;;;;6094137;23;19972;-80
2022/05/17 03:57:03;;;;;;;;;;;16.80;83.10;;;;;;6096012;23;19921;-79
2022/05/17 03:59:29;;;;;;;;;;;16.70;84.60;;;;;;6094336;23;20322;-79
2022/05/17 04:01:57;;;;;;;;;;;16.70;84.20;;;;;;6094762;23;19921;-78
2022/05/17 04:04:24;;;;;;;;;;;16.70;83.60;;;;;;6092489;23;19925;-81
2022/05/17 04:06:50;;;;;;;;;;;16.70;83.90;;;;;;6095279;23;20413;-79
2022/05/17 04:09:17;;;;;;;;;;;16.50;86.20;;;;;;6094290;23;19972;-84
2022/05/17 04:11:44;;;;;;;;;;;16.50;85.50;;;;;;6096404;23;20331;-86
2022/05/17 04:14:11;;;;;;;;;;;16.40;86.40;;;;;;6095835;23;19928;-81
2022/05/17 04:16:38;;;;;;;;;;;16.40;86.10;;;;;;6094333;23;19929;-78
2022/05/17 04:19:05;;;;;;;;;;;16.40;85.50;;;;;;6095015;23;19931;-81
2022/05/17 04:21:33;;;;;;;;;;;16.40;86.90;;;;;;6094511;23;19977;-79
2022/05/17 04:24:00;;;;;;;;;;;16.30;87.00;;;;;;6096076;23;20338;-82
2022/05/17 04:26:27;;;;;;;;;;;16.30;87.50;;;;;;6097529;23;19921;-85
2022/05/17 04:28:54;;;;;;;;;;;16.20;87.50;;;;;;6095871;23;20254;-84
2022/05/17 04:31:21;;;;;;;;;;;16.30;89.90;;;;;;6093230;23;19921;-78
2022/05/17 04:33:47;;;;;;;;;;;16.30;89.30;;;;;;6093724;23;19936;-79
2022/05/17 04:36:14;;;;;;;;;;;16.30;88.40;;;;;;6093920;23;19921;-81
2022/05/17 04:38:41;;;;;;;;;;;16.40;88.90;;;;;;6093679;23;19932;-79
2022/05/17 04:41:08;;;;;;;;;;;16.40;88.10;;;;;;6119535;23;20343;-81
2022/05/17 04:43:35;;;;;;;;;;;16.40;88.20;;;;;;6094346;23;20394;-81
2022/05/17 04:46:02;;;;;;;;;;;16.30;88.60;;;;;;6095471;23;20398;-81
2022/05/17 04:48:29;;;;;;;;;;;16.20;89.60;;;;;;6095715;23;19921;-84
2022/05/17 04:50:55;;;;;;;;;;;16.20;90.00;;;;;;6096917;23;19976;-82
2022/05/17 04:53:26;;;;;;;;;;;16.20;90.20;;;;;;6095294;23;19922;-79
2022/05/17 04:55:53;;;;;;;;;;;16.20;90.00;;;;;;6095955;23;20160;-85
2022/05/17 04:58:20;;;;;;;;;;;16.30;90.00;;;;;;6094804;23;20437;-81
2022/05/17 05:00:47;;;;;;;;;;;16.30;89.80;;;;;;6097852;23;20236;-82
2022/05/17 05:03:14;;;;;;;;;;;16.30;89.70;;;;;;6095084;23;19929;-85
2022/05/17 05:05:41;;;;;;;;;;;16.30;90.10;;;;;;6094995;23;19929;-79
2022/05/17 05:08:07;;;;;;;;;;;16.30;90.20;;;;;;6096384;23;20361;-79
2022/05/17 05:10:34;;;;;;;;;;;16.30;90.00;;;;;;6094897;23;19928;-79
2022/05/17 05:13:01;;;;;;;;;;;16.40;89.70;;;;;;6095441;23;19928;-79
2022/05/17 05:15:28;;;;;;;;;;;16.40;89.10;;;;;;6094419;23;19929;-80
2022/05/17 05:17:55;;;;;;;;;;;16.50;89.60;;;;;;6094652;23;19925;-78
2022/05/17 05:20:21;;;;;;;;;;;16.60;89.00;;;;;;6093508;23;20251;-79
2022/05/17 05:22:48;;;;;;;;;;;16.60;88.10;;;;;;6093430;23;19929;-84
2022/05/17 05:25:16;;;;;;;;;;;16.70;89.20;;;;;;6094730;23;19925;-80
2022/05/17 05:27:43;;;;;;;;;;;16.70;89.50;;;;;;6094908;23;19922;-82
2022/05/17 05:30:12;;;;;;;;;;;16.80;89.20;;;;;;6095553;23;19925;-82
2022/05/17 05:32:39;;;;;;;;;;;16.80;88.50;;;;;;6094719;23;19925;-79
2022/05/17 05:35:06;;;;;;;;;;;16.90;87.70;;;;;;6095792;23;20404;-79
2022/05/17 05:37:33;;;;;;;;;;;16.90;87.10;;;;;;6094808;23;19921;-78
2022/05/17 05:39:59;;;;;;;;;;;17.00;86.30;;;;;;6095602;23;19921;-79
2022/05/17 05:42:26;;;;;;;;;;;17.10;86.20;;;;;;6094494;23;20307;-84
2022/05/17 05:44:53;;;;;;;;;;;17.20;85.50;;;;;;6095592;23;19953;-78
2022/05/17 05:47:20;;;;;;;;;;;17.20;84.70;;;;;;6096634;23;19929;-82
2022/05/17 05:49:46;;;;;;;;;;;17.30;84.30;;;;;;6094812;23;20306;-79
2022/05/17 05:52:15;;;;;;;;;;;17.40;84.00;;;;;;6095701;23;19960;-85
2022/05/17 05:54:42;;;;;;;;;;;17.50;84.90;;;;;;6094123;23;19925;-82
2022/05/17 05:57:09;;;;;;;;;;;17.60;83.60;;;;;;6095822;23;20338;-83
2022/05/17 05:59:35;;;;;;;;;;;17.70;82.30;;;;;;6094017;23;19926;-79
2022/05/17 06:02:02;;;;;;;;;;;17.80;80.30;;;;;;6095579;23;19973;-79
2022/05/17 06:04:29;;;;;;;;;;;17.90;81.50;;;;;;6094403;23;19921;-79
2022/05/17 06:06:57;;;;;;;;;;;18.10;84.30;;;;;;6095314;23;19921;-79
2022/05/17 06:09:25;;;;;;;;;;;18.20;83.90;;;;;;6094401;23;20105;-84
2022/05/17 06:11:52;;;;;;;;;;;18.30;83.20;;;;;;6095423;23;19992;-82
2022/05/17 06:14:20;;;;;;;;;;;18.30;81.60;;;;;;6095334;23;19973;-82
2022/05/17 06:16:47;;;;;;;;;;;18.40;80.50;;;;;;6094348;23;19929;-79
2022/05/17 06:19:14;;;;;;;;;;;18.50;79.00;;;;;;6095445;23;20358;-79
2022/05/17 06:21:41;;;;;;;;;;;18.60;76.10;;;;;;6093973;23;19972;-79
2022/05/17 06:24:08;;;;;;;;;;;18.70;75.00;;;;;;6096314;23;19921;-79
2022/05/17 06:26:36;;;;;;;;;;;18.80;75.50;;;;;;6094096;23;19933;-83
2022/05/17 06:29:03;;;;;;;;;;;18.90;74.30;;;;;;6095199;23;19922;-83
2022/05/17 06:31:30;;;;;;;;;;;19.00;72.90;;;;;;6094584;23;19925;-83
2022/05/17 06:33:57;;;;;;;;;;;19.10;73.60;;;;;;6095255;23;19952;-83
2022/05/17 06:36:24;;;;;;;;;;;19.10;73.50;;;;;;6095216;23;20346;-83
2022/05/17 06:39:11;;;;;;;;;;;19.20;69.20;;;;;;6094197;23;20000;-78
2022/05/17 06:41:38;;;;;;;;;;;19.30;67.90;;;;;;6094845;23;19925;-84
2022/05/17 06:44:06;;;;;;;;;;;19.40;66.50;;;;;;6093712;23;19925;-82
2022/05/17 06:46:33;;;;;;;;;;;19.60;63.10;;;;;;6094975;23;19953;-79
2022/05/17 06:49:00;;;;;;;;;;;19.60;64.10;;;;;;6093452;23;19941;-83
2022/05/17 06:51:27;;;;;;;;;;;19.70;64.30;;;;;;6095316;23;19921;-78
2022/05/17 06:53:54;;;;;;;;;;;19.80;63.90;;;;;;6095108;23;19921;-83
2022/05/17 06:56:21;;;;;;;;;;;20.00;63.10;;;;;;6095175;23;19980;-78
2022/05/17 06:58:47;;;;;;;;;;;20.10;64.40;;;;;;6094304;23;19921;-82
2022/05/17 07:01:14;;;;;;;;;;;20.10;64.30;;;;;;6094304;23;20250;-79
2022/05/17 07:03:42;;;;;;;;;;;20.20;63.40;;;;;;6094967;23;19921;-84
2022/05/17 07:06:10;;;;;;;;;;;20.40;62.70;;;;;;6093974;23;19921;-80
2022/05/17 07:08:36;;;;;;;;;;;20.50;59.90;;;;;;6094701;23;19921;-78
2022/05/17 07:13:48;;;;;;;;;;;20.70;57.80;;;;;;6095041;23;19976;-82
2022/05/17 07:16:15;;;;;;;;;;;20.80;58.30;;;;;;6092713;23;19929;-79
2022/05/17 07:18:42;;;;;;;;;;;21.00;58.00;;;;;;6095145;23;19956;-78
2022/05/17 07:21:11;;;;;;;;;;;21.00;57.80;;;;;;6093569;23;19989;-83
2022/05/17 07:23:38;;;;;;;;;;;21.10;57.50;;;;;;6094643;23;19980;-83
2022/05/17 07:26:05;;;;;;;;;;;21.20;57.90;;;;;;6093666;23;19925;-79
2022/05/17 07:28:32;;;;;;;;;;;21.30;56.70;;;;;;6094428;23;19921;-82
2022/05/17 07:30:59;;;;;;;;;;;21.40;57.30;;;;;;6093688;23;19921;-80
2022/05/17 07:33:26;;;;;;;;;;;21.50;55.50;;;;;;6094487;23;19921;-80
2022/05/17 07:35:53;;;;;;;;;;;21.60;55.90;;;;;;6093259;23;19921;-82
2022/05/17 07:38:21;;;;;;;;;;;21.70;57.20;;;;;;6094386;23;20246;-82
2022/05/17 07:40:49;;;;;;;;;;;21.90;55.90;;;;;;6094815;23;19921;-83
2022/05/17 07:43:16;;;;;;;;;;;22.00;56.20;;;;;;6093991;23;19921;-79
2022/05/17 07:45:44;;;;;;;;;;;22.20;54.40;;;;;;6095346;23;20342;-83
2022/05/17 07:48:11;;;;;;;;;;;22.20;56.20;;;;;;6094977;23;19953;-83
2022/05/17 07:50:38;;;;;;;;;;;22.40;54.50;;;;;;6094694;23;19921;-80
2022/05/17 07:53:09;;;;;;;;;;;22.50;55.60;;;;;;6093804;23;19929;-83
2022/05/17 07:55:36;;;;;;;;;;;22.70;55.40;;;;;;6094243;23;19925;-80
2022/05/17 07:58:04;;;;;;;;;;;22.80;54.50;;;;;;6093685;23;19972;-80
2022/05/17 08:00:31;;;;;;;;;;;22.90;53.70;;;;;;6095384;23;19973;-84
2022/05/17 08:02:58;;;;;;;;;;;23.10;54.50;;;;;;6095862;23;19925;-83
2022/05/17 08:05:25;;;;;;;;;;;22.90;54.70;;;;;;6094342;23;19930;-83
2022/05/17 08:07:52;;;;;;;;;;;23.00;53.50;;;;;;6094304;23;19921;-80
2022/05/17 08:10:20;;;;;;;;;;;23.10;53.20;;;;;;6069901;23;20388;-81
2022/05/17 08:12:47;;;;;;;;;;;23.30;54.20;;;;;;6095636;23;19925;-79
2022/05/17 08:15:15;;;;;;;;;;;23.40;53.70;;;;;;6095104;23;19925;-83
2022/05/17 08:17:42;;;;;;;;;;;23.50;52.30;;;;;;6096634;23;19921;-83
2022/05/17 08:20:09;;;;;;;;;;;23.50;52.30;;;;;;6095525;23;20343;-83
2022/05/17 08:22:40;;;;;;;;;;;23.60;52.70;;;;;;6095654;23;19981;-81
2022/05/17 08:27:55;;;;;;;;;;;23.90;50.90;;;;;;6097705;23;19937;-80
2022/05/17 08:30:23;;;;;;;;;;;24.00;51.70;;;;;;6096075;23;19922;-79
2022/05/17 08:35:38;;;;;;;;;;;24.10;51.10;;;;;;6097025;23;19921;-83
2022/05/17 08:38:05;;;;;;;;;;;24.00;50.10;;;;;;6096341;23;19937;-84
2022/05/17 08:40:33;;;;;;;;;;;23.80;50.10;;;;;;6096836;23;19928;-80
2022/05/17 08:43:07;;;;;;;;;;;24.10;50.90;;;;;;6096909;23;19921;-79
2022/05/17 08:45:39;;;;;;;;;;;24.40;51.70;;;;;;6097328;23;19960;-81
2022/05/17 08:48:11;;;;;;;;;;;24.30;52.00;;;;;;6096611;23;19921;-84
2022/05/17 08:50:38;;;;;;;;;;;24.20;52.00;;;;;;6095665;23;19928;-83
2022/05/17 08:53:09;;;;;;;;;;;24.50;53.90;;;;;;6095765;23;19929;-80
2022/05/17 08:55:38;;;;;;;;;;;24.80;51.60;;;;;;6096485;23;19973;-83
2022/05/17 08:58:08;;;;;;;;;;;24.90;50.60;;;;;;6100438;23;19945;-83
2022/05/17 09:00:40;;;;;;;;;;;25.10;53.00;;;;;;6100073;23;19921;-84
2022/05/17 09:03:19;;;;;;;;;;;25.40;52.60;;;;;;6096100;23;20346;-84
2022/05/17 09:05:45;;;;;;;;;;;25.60;52.20;;;;;;6119833;23;19925;-82
2022/05/17 09:08:12;;;;;;;;;;;25.20;49.20;;;;;;6096032;23;19921;-80
2022/05/17 09:10:42;;;;;;;;;;;25.10;52.70;;;;;;6096103;23;19925;-83
2022/05/17 09:13:09;;;;;;;;;;;25.00;52.00;;;;;;6096317;23;19973;-84
2022/05/17 09:15:36;;;;;;;;;;;25.10;53.40;;;;;;6096007;23;19921;-84
2022/05/17 09:18:05;;;;;;;;;;;25.50;53.10;;;;;;6095820;23;20283;-81
2022/05/17 09:20:33;;;;;;;;;;;25.50;52.50;;;;;;6095201;23;19976;-80
2022/05/17 09:23:01;;;;;;;;;;;25.50;51.90;;;;;;6095855;23;20346;-83
2022/05/17 09:25:44;;;;;;;;;;;25.50;52.90;;;;;;6095041;23;19921;-80
2022/05/17 09:28:12;;;;;;;;;;;25.80;55.50;;;;;;6097216;23;20240;-81
2022/05/17 09:30:39;;;;;;;;;;;26.30;52.20;;;;;;6095400;23;19925;-81
2022/05/17 09:33:10;;;;;;;;;;;26.40;50.80;;;;;;6101157;23;19945;-83
2022/05/17 09:35:40;;;;;;;;;;;26.40;50.80;;;;;;6101945;23;19922;-84
2022/05/17 09:38:07;;;;;;;;;;;26.30;51.00;;;;;;6095916;23;20258;-80
2022/05/17 09:40:40;;;;;;;;;;;26.20;51.60;;;;;;6094432;23;19928;-81
2022/05/17 09:43:08;;;;;;;;;;;26.20;51.20;;;;;;6095231;23;19922;-81
2022/05/17 09:45:50;;;;;;;;;;;26.10;50.90;;;;;;6097111;23;19996;-83
2022/05/17 09:48:30;;;;;;;;;;;26.30;50.70;;;;;;6101840;23;20245;-80
2022/05/17 09:53:44;;;;;;;;;;;26.50;49.80;;;;;;6096729;23;19928;-82
2022/05/17 09:56:11;;;;;;;;;;;26.40;50.80;;;;;;6098419;23;20401;-85
2022/05/17 09:58:39;;;;;;;;;;;26.60;48.60;;;;;;6096919;23;19972;-84
2022/05/17 10:01:17;;;;;;;;;;;26.60;50.10;;;;;;6097627;23;19921;-85
2022/05/17 10:03:58;;;;;;;;;;;26.70;47.70;;;;;;6098780;23;19921;-79
2022/05/17 10:06:34;;;;;;;;;;;26.80;48.10;;;;;;6100184;23;19945;-85
2022/05/17 10:09:02;;;;;;;;;;;26.80;49.10;;;;;;6074818;23;19932;-84
2022/05/17 10:11:40;;;;;;;;;;;27.10;46.70;;;;;;6103125;23;19976;-81
2022/05/17 10:14:21;;;;;;;;;;;26.90;47.40;;;;;;6073815;23;19921;-85
2022/05/17 10:16:51;;;;;;;;;;;27.00;48.90;;;;;;6103639;23;19921;-80
2022/05/17 10:19:37;;;;;;;;;;;27.40;48.60;;;;;;6103116;23;20291;-80
2022/05/17 10:22:08;;;;;;;;;;;27.70;50.40;;;;;;6097131;23;19925;-81
2022/05/17 10:24:54;;;;;;;;;;;27.40;47.40;;;;;;6095502;23;19937;-84
2022/05/17 10:27:30;;;;;;;;;;;27.40;49.30;;;;;;6123074;23;19925;-79
2022/05/17 10:30:17;;;;;;;;;;;27.50;47.40;;;;;;6100060;23;19921;-83
2022/05/17 10:33:00;;;;;;;;;;;27.80;47.40;;;;;;6099555;23;19925;-80
2022/05/17 10:35:30;;;;;;;;;;;27.90;48.10;;;;;;6097037;23;19925;-84
2022/05/17 10:37:59;;;;;;;;;;;28.20;46.90;;;;;;6095729;23;19928;-83
2022/05/17 10:40:33;;;;;;;;;;;28.00;45.60;;;;;;6094754;23;19922;-83
2022/05/17 10:43:02;;;;;;;;;;;28.00;46.90;;;;;;6097506;23;19926;-79
2022/05/17 10:45:33;;;;;;;;;;;27.90;46.10;;;;;;6096303;23;19921;-81
2022/05/17 10:48:08;;;;;;;;;;;27.90;46.50;;;;;;6103073;23;20306;-79
2022/05/17 10:50:50;;;;;;;;;;;27.80;45.30;;;;;;6073402;23;19933;-80
2022/05/17 10:53:35;;;;;;;;;;;27.70;47.10;;;;;;6096020;23;19921;-83
2022/05/17 10:56:14;;;;;;;;;;;28.10;47.90;;;;;;6094960;23;19921;-84
2022/05/17 10:58:41;;;;;;;;;;;28.30;46.80;;;;;;6070452;23;20353;-79
2022/05/17 11:01:19;;;;;;;;;;;27.90;46.60;;;;;;6100746;23;19936;-83
2022/05/17 11:04:03;;;;;;;;;;;27.80;47.30;;;;;;6070646;23;20254;-83
2022/05/17 11:06:40;;;;;;;;;;;28.10;46.80;;;;;;6097336;23;19984;-80
2022/05/17 11:09:21;;;;;;;;;;;28.30;45.60;;;;;;6104214;23;19906;-80
2022/05/17 11:11:57;;;;;;;;;;;28.30;45.70;;;;;;6097863;23;19929;-80
2022/05/17 11:14:27;;;;;;;;;;;28.50;46.10;;;;;;6096611;23;19921;-83
2022/05/17 11:16:57;;;;;;;;;;;28.60;45.50;;;;;;6094972;23;19921;-80
2022/05/17 11:19:38;;;;;;;;;;;28.80;47.40;;;;;;6097063;23;19976;-81
2022/05/17 11:22:21;;;;;;;;;;;28.80;46.50;;;;;;6097420;23;19922;-83
2022/05/17 11:25:00;;;;;;;;;;;29.10;45.20;;;;;;6097651;23;19921;-84
2022/05/17 11:27:36;;;;;;;;;;;29.20;45.30;;;;;;6098747;23;19906;-80
2022/05/17 11:30:22;;;;;;;;;;;28.90;44.50;;;;;;6099735;23;20227;-83
2022/05/17 11:33:07;;;;;;;;;;;28.50;47.00;;;;;;6102324;23;19965;-83
2022/05/17 11:35:36;;;;;;;;;;;28.60;47.10;;;;;;6093505;23;19925;-80
2022/05/17 11:38:05;;;;;;;;;;;28.80;45.30;;;;;;6094222;23;19953;-80
2022/05/17 11:40:47;;;;;;;;;;;28.80;45.70;;;;;;6096221;23;19973;-80
2022/05/17 11:46:04;;;;;;;;;;;29.20;45.10;;;;;;6102947;23;20231;-80
2022/05/17 11:48:57;;;;;;;;;;;29.20;43.80;;;;;;6094430;23;19925;-83
2022/05/17 11:51:28;;;;;;;;;;;29.40;44.90;;;;;;6082791;23;19976;-80
2022/05/17 11:53:55;;;;;;;;;;;29.40;41.80;;;;;;6096367;23;20516;-83
2022/05/17 11:56:24;;;;;;;;;;;29.50;42.20;;;;;;6094940;23;19921;-80
2022/05/17 11:58:54;;;;;;;;;;;29.60;42.10;;;;;;6097513;23;19921;-80
2022/05/17 12:01:30;;;;;;;;;;;29.50;43.10;;;;;;6097740;23;19921;-83
2022/05/17 12:03:57;;;;;;;;;;;29.60;45.60;;;;;;6094482;23;20005;-83
2022/05/17 12:06:39;;;;;;;;;;;29.50;43.30;;;;;;6093582;23;19921;-83
2022/05/17 12:09:10;;;;;;;;;;;29.60;45.20;;;;;;6100054;23;19936;-80
2022/05/17 12:11:36;;;;;;;;;;;29.60;42.40;;;;;;6094569;23;19925;-81
2022/05/17 12:14:13;;;;;;;;;;;29.90;43.90;;;;;;6094629;23;20259;-83
2022/05/17 12:16:48;;;;;;;;;;;30.20;43.10;;;;;;6094264;23;19994;-83
2022/05/17 12:19:24;;;;;;;;;;;30.30;42.20;;;;;;6096932;23;19921;-83
2022/05/17 12:21:51;;;;;;;;;;;30.30;41.80;;;;;;6094045;23;19924;-84
2022/05/17 12:24:36;;;;;;;;;;;30.30;43.20;;;;;;6093701;23;19952;-80
2022/05/17 12:27:06;;;;;;;;;;;30.20;42.00;;;;;;6093236;23;19969;-83
2022/05/17 12:32:30;;;;;;;;;;;29.80;42.30;;;;;;6097623;23;19936;-80
2022/05/17 12:34:57;;;;;;;;;;;30.00;41.10;;;;;;6101343;23;20430;-80
2022/05/17 12:37:26;;;;;;;;;;;29.90;40.90;;;;;;6096881;23;20361;-84
2022/05/17 12:45:27;;;;;;;;;;;30.60;39.00;;;;;;6099810;23;20362;-84
2022/05/17 12:47:55;;;;;;;;;;;30.90;39.50;;;;;;6097777;23;19976;-81
2022/05/17 12:50:24;;;;;;;;;;;31.10;37.90;;;;;;6097516;23;19921;-80
2022/05/17 12:52:53;;;;;;;;;;;31.00;39.40;;;;;;6096973;23;19972;-80
2022/05/17 12:55:22;;;;;;;;;;;30.90;38.40;;;;;;6099980;23;19921;-83
2022/05/17 12:57:49;;;;;;;;;;;30.50;37.30;;;;;;6093934;23;19933;-81
2022/05/17 13:00:29;;;;;;;;;;;30.70;40.40;;;;;;6098775;23;19972;-84
2022/05/17 13:03:01;;;;;;;;;;;31.10;39.20;;;;;;6099058;23;20342;-80
2022/05/17 13:05:42;;;;;;;;;;;31.30;37.60;;;;;;6097976;23;19977;-82
2022/05/17 13:08:10;;;;;;;;;;;31.50;38.30;;;;;;6096654;23;19925;-81
2022/05/17 13:10:38;;;;;;;;;;;30.90;37.70;;;;;;6097783;23;19980;-83
2022/05/17 13:13:19;;;;;;;;;;;30.70;39.80;;;;;;6098323;23;20385;-83
2022/05/17 13:15:49;;;;;;;;;;;30.60;40.40;;;;;;6072189;23;20335;-83
2022/05/17 13:18:17;;;;;;;;;;;31.00;39.60;;;;;;6096870;23;19921;-83
2022/05/17 13:20:48;;;;;;;;;;;31.00;38.10;;;;;;6096035;23;20357;-80
2022/05/17 13:23:16;;;;;;;;;;;31.40;38.80;;;;;;6097438;23;19925;-84
2022/05/17 13:25:44;;;;;;;;;;;30.70;37.50;;;;;;6100016;23;19925;-80
2022/05/17 13:28:11;;;;;;;;;;;30.80;37.20;;;;;;6097330;23;19925;-82
2022/05/17 13:30:40;;;;;;;;;;;30.60;36.40;;;;;;6094664;23;19949;-83
2022/05/17 13:33:09;;;;;;;;;;;30.40;38.40;;;;;;6096728;23;20258;-80
2022/05/17 13:35:38;;;;;;;;;;;30.50;38.20;;;;;;6094578;23;19921;-81
2022/05/17 13:38:08;;;;;;;;;;;30.40;34.60;;;;;;6098251;23;19921;-85
2022/05/17 13:40:39;;;;;;;;;;;30.60;35.70;;;;;;6096587;23;19921;-83
2022/05/17 13:43:25;;;;;;;;;;;31.20;36.00;;;;;;6096538;23;20000;-81
2022/05/17 13:45:56;;;;;;;;;;;31.60;35.40;;;;;;6119226;23;19996;-84
2022/05/17 13:48:23;;;;;;;;;;;32.00;35.10;;;;;;6098335;23;19969;-84
2022/05/17 13:50:55;;;;;;;;;;;32.20;34.60;;;;;;6100216;23;19921;-84
2022/05/17 13:53:22;;;;;;;;;;;32.00;35.70;;;;;;6098169;23;19925;-84
2022/05/17 13:55:49;;;;;;;;;;;32.20;34.60;;;;;;6102596;23;19921;-83
2022/05/17 13:58:16;;;;;;;4.82;2.10;;;32.30;32.20;;;;;;6099290;23;20254;-82
2022/05/17 14:01:08;;;;;;;2.78;1.35;;;31.90;33.40;;;;;;6096211;23;20456;-81
2022/05/17 14:03:36;;;;;;;5.75;1.48;;;32.20;33.10;;;;;;6071132;23;20337;-83
2022/05/17 14:06:11;;;;;;;4.88;1.88;;;31.60;33.10;;;;;;6094925;23;20026;-84
2022/05/17 14:11:50;;;;;;;3.10;1.77;;;32.00;33.40;;;;;;6093895;23;20359;-81
2022/05/17 14:14:19;;;;;;;;;;;32.40;33.60;;;;;;6094146;23;20459;-84
2022/05/17 14:17:00;;;;;;;4.25;1.48;;;32.50;34.30;;;;;;6081461;23;20294;-82
2022/05/17 14:19:30;;;;;;;6.37;1.80;;;32.90;36.00;;;;;;6093082;23;20393;-84
2022/05/17 14:21:59;;;;;;;3.33;1.20;;;32.00;32.60;;;;;;6093727;23;20074;-81
2022/05/17 14:24:27;;;;;;;3.38;1.48;;;31.90;33.40;;;;;;6095191;23;20478;-81
2022/05/17 14:26:57;;;;;;;4.72;2.25;;;32.40;35.00;;;;;;6096335;23;20077;-84
2022/05/17 14:29:26;;;;;;;8.90;2.25;;;32.50;34.10;;;;;;6096251;23;20403;-81
2022/05/17 14:31:54;;;;;;;5.15;1.90;;;31.70;33.20;;;;;;6092126;23;20435;-82
2022/05/17 14:34:35;;;;;;;4.22;1.38;;;31.30;37.50;;;;;;6093937;23;20433;-84
2022/05/17 14:37:03;;;;;;;1.40;1.05;;;31.10;33.90;;;;;;6095821;23;20023;-82
2022/05/17 14:39:32;;;;;;;3.10;2.53;;;31.10;35.00;;;;;;6094339;23;20066;-84
2022/05/17 14:41:59;;;;;;;;;;;30.90;33.20;;;;;;6118701;23;20351;-84
2022/05/17 14:44:28;;;;;;;;;;;30.90;34.60;;;;;;6095175;23;19928;-81
2022/05/17 14:47:02;;;;;;;;;;;31.30;34.60;;;;;;6096731;23;19947;-81
2022/05/17 14:49:29;;;;;;;;;;;31.60;34.00;;;;;;6094593;23;19921;-81
2022/05/17 14:51:56;;;;;;;;;;;31.90;32.50;;;;;;6094653;23;19917;-82
2022/05/17 14:54:23;;;;;;;;;;;32.10;31.90;;;;;;6093455;23;19921;-85
2022/05/17 14:56:50;;;;;;;;;;;32.30;33.80;;;;;;6094905;23;20000;-86